Time;durP1;ratioP1;P1;durP2;ratioP2;P2;SDS_P1;SDS_P2;PMS_P1;PMS_P2;Temp;Humidity;BMP_temperature;BMP_pressure;BME280_temperature;BME280_humidity;BME280_pressure;Samples;Min_cycle;Max_cycle;Signal;HPM_P1;HPM_P2
2022/04/14 00:01:53;;;;;;;8.57;5.90;;;;;;;;;;5060868;28;20772;-84
2022/04/14 00:04:20;;;;;;;7.90;5.47;;;;;;;;;;5058862;28;20231;-84
2022/04/14 00:06:48;;;;;;;7.40;5.55;;;;;;;;;;5060228;28;20232;-84
2022/04/14 00:09:16;;;;;;;8.02;5.97;;;;;;;;;;5058125;28;20264;-85
2022/04/14 00:11:44;;;;;;;6.03;5.43;;;;;;;;;;5058606;28;20210;-84
2022/04/14 00:14:11;;;;;;;6.93;6.00;;;;;;;;;;5059496;28;20197;-84
2022/04/14 00:16:38;;;;;;;6.85;5.63;;;;;;;;;;5056605;28;20217;-85
2022/04/14 00:19:05;;;;;;;6.32;5.70;;;;;;;;;;5058624;28;20197;-85
2022/04/14 00:21:33;;;;;;;6.25;5.65;;;;;;;;;;5058788;28;20266;-85
2022/04/14 00:24:00;;;;;;;6.88;6.15;;;;;;;;;;5058340;28;20224;-85
2022/04/14 00:26:28;;;;;;;6.45;5.82;;;;;;;;;;5058699;28;20256;-84
2022/04/14 00:28:56;;;;;;;7.22;5.75;;;;;;;;;;5058797;28;20586;-85
2022/04/14 00:31:23;;;;;;;6.90;6.22;;;;;;;;;;5058383;28;20225;-85
2022/04/14 00:33:50;;;;;;;7.20;6.28;;;;;;;;;;5057855;28;20202;-85
2022/04/14 00:36:18;;;;;;;7.82;7.13;;;;;;;;;;5058622;28;20554;-85
2022/04/14 00:38:45;;;;;;;8.40;7.22;;;;;;;;;;5058024;28;20209;-85
2022/04/14 00:41:12;;;;;;;6.55;5.95;;;;;;;;;;5058174;28;20221;-85
2022/04/14 00:43:43;;;;;;;8.73;6.13;;;;;;;;;;5057592;28;20255;-86
2022/04/14 00:46:10;;;;;;;6.80;6.25;;;;;;;;;;5058545;28;20570;-84
2022/04/14 00:48:37;;;;;;;8.90;6.10;;;;;;;;;;5057983;28;20206;-84
2022/04/14 00:51:07;;;;;;;8.40;7.57;;;;;;;;;;5057582;28;20237;-84
2022/04/14 00:53:34;;;;;;;7.03;5.40;;;;;;;;;;5056846;28;20205;-85
2022/04/14 00:56:01;;;;;;;7.53;6.70;;;;;;;;;;5057433;28;20197;-83
2022/04/14 00:58:28;;;;;;;6.80;5.57;;;;;;;;;;5057550;28;20206;-84
2022/04/14 01:00:57;;;;;;;7.20;6.50;;;;;;;;;;5057775;28;20709;-84
2022/04/14 01:03:25;;;;;;;8.73;6.50;;;;;;;;;;5057057;28;20666;-85
2022/04/14 01:05:54;;;;;;;7.18;6.47;;;;;;;;;;5055859;28;20275;-84
2022/04/14 01:08:22;;;;;;;10.52;7.20;;;;;;;;;;5056712;28;20666;-85
2022/04/14 01:10:50;;;;;;;9.70;6.63;;;;;;;;;;5056345;28;20224;-86
2022/04/14 01:13:19;;;;;;;7.10;6.30;;;;;;;;;;5055903;28;20728;-85
2022/04/14 01:15:47;;;;;;;8.10;7.25;;;;;;;;;;5056521;28;20247;-85
2022/04/14 01:18:16;;;;;;;7.20;6.50;;;;;;;;;;5056362;28;20596;-86
2022/04/14 01:20:44;;;;;;;8.57;7.32;;;;;;;;;;5041070;28;20745;-85
2022/04/14 01:23:13;;;;;;;11.52;8.73;;;;;;;;;;5035975;28;20206;-85
2022/04/14 01:25:41;;;;;;;8.15;6.80;;;;;;;;;;5035401;28;20222;-85
2022/04/14 01:28:09;;;;;;;9.70;6.82;;;;;;;;;;5035723;28;20210;-85
2022/04/14 01:30:37;;;;;;;8.45;7.68;;;;;;;;;;5036130;28;20233;-85
2022/04/14 01:33:05;;;;;;;8.40;7.55;;;;;;;;;;5036566;28;20253;-86
2022/04/14 01:35:32;;;;;;;7.07;6.25;;;;;;;;;;5036009;28;20205;-85
2022/04/14 01:37:59;;;;;;;8.63;7.03;;;;;;;;;;5036154;28;20205;-85
2022/04/14 01:40:28;;;;;;;9.13;7.22;;;;;;;;;;5035879;28;20229;-85
2022/04/14 01:42:57;;;;;;;7.07;6.35;;;;;;;;;;5036014;28;20208;-86
2022/04/14 01:45:25;;;;;;;7.57;6.15;;;;;;;;;;5034962;28;20218;-85
2022/04/14 01:47:52;;;;;;;6.05;5.50;;;;;;;;;;5035504;28;20284;-85
2022/04/14 01:50:20;;;;;;;6.90;6.20;;;;;;;;;;5046143;28;20316;-85
2022/04/14 01:52:48;;;;;;;8.30;7.50;;;;;;;;;;5054712;28;20201;-85
2022/04/14 01:55:15;;;;;;;7.63;6.38;;;;;;;;;;5055031;28;20650;-85
2022/04/14 01:57:42;;;;;;;8.20;6.05;;;;;;;;;;5055201;28;20284;-85
2022/04/14 02:00:14;;;;;;;6.50;5.80;;;;;;;;;;5055742;28;20225;-85
2022/04/14 02:02:42;;;;;;;6.28;5.10;;;;;;;;;;5055142;28;20201;-85
2022/04/14 02:05:10;;;;;;;7.20;5.10;;;;;;;;;;5055854;28;20614;-85
2022/04/14 02:07:37;;;;;;;5.78;5.22;;;;;;;;;;5055060;28;20236;-85
2022/04/14 02:10:05;;;;;;;6.47;5.15;;;;;;;;;;5055045;28;20252;-85
2022/04/14 02:12:35;;;;;;;7.28;5.20;;;;;;;;;;5054538;28;20210;-87
2022/04/14 02:15:02;;;;;;;5.80;4.78;;;;;;;;;;5054756;28;20213;-85
2022/04/14 02:17:31;;;;;;;7.65;5.40;;;;;;;;;;5054401;28;20198;-85
2022/04/14 02:19:58;;;;;;;6.57;5.18;;;;;;;;;;5054280;28;20706;-85
2022/04/14 02:22:25;;;;;;;5.40;4.82;;;;;;;;;;5054292;28;20210;-84
2022/04/14 02:24:53;;;;;;;5.55;4.68;;;;;;;;;;5054489;28;20228;-85
2022/04/14 02:27:21;;;;;;;7.35;6.22;;;;;;;;;;5054874;28;20258;-85
2022/04/14 02:29:48;;;;;;;6.25;5.57;;;;;;;;;;5054398;28;20710;-86
2022/04/14 02:32:16;;;;;;;5.97;5.40;;;;;;;;;;5054731;28;20574;-85
2022/04/14 02:34:44;;;;;;;8.60;5.60;;;;;;;;;;5054797;28;20201;-84
2022/04/14 02:37:12;;;;;;;7.40;6.13;;;;;;;;;;5054426;28;20201;-85
2022/04/14 02:39:39;;;;;;;6.57;5.05;;;;;;;;;;5053961;28;20260;-85
2022/04/14 02:42:07;;;;;;;5.78;5.28;;;;;;;;;;5054038;28;20216;-85
2022/04/14 02:44:34;;;;;;;6.22;5.40;;;;;;;;;;5054783;28;20205;-86
2022/04/14 02:47:01;;;;;;;5.47;4.80;;;;;;;;;;5054992;28;20213;-85
2022/04/14 02:49:29;;;;;;;7.30;5.70;;;;;;;;;;5054745;28;20197;-85
2022/04/14 02:51:57;;;;;;;7.40;4.90;;;;;;;;;;5053732;28;20576;-86
2022/04/14 02:54:25;;;;;;;5.15;4.70;;;;;;;;;;5054571;28;20209;-85
2022/04/14 02:56:52;;;;;;;5.57;4.38;;;;;;;;;;5054671;28;20205;-85
2022/04/14 02:59:19;;;;;;;7.35;5.00;;;;;;;;;;5054487;28;20205;-85
2022/04/14 03:01:46;;;;;;;4.80;4.40;;;;;;;;;;5054351;28;20579;-85
2022/04/14 03:04:14;;;;;;;5.90;5.15;;;;;;;;;;5054923;28;20205;-85
2022/04/14 03:06:41;;;;;;;5.50;4.85;;;;;;;;;;5054441;28;20228;-85
2022/04/14 03:09:09;;;;;;;4.82;4.43;;;;;;;;;;5053699;28;20205;-85
2022/04/14 03:11:37;;;;;;;4.97;3.70;;;;;;;;;;5054734;28;20197;-85
2022/04/14 03:14:04;;;;;;;4.95;4.38;;;;;;;;;;5054077;28;20201;-85
2022/04/14 03:16:31;;;;;;;4.97;4.28;;;;;;;;;;5053560;28;20433;-85
2022/04/14 03:18:58;;;;;;;4.53;3.83;;;;;;;;;;5054429;28;20198;-85
2022/04/14 03:21:26;;;;;;;4.50;3.78;;;;;;;;;;5054123;28;20221;-85
2022/04/14 03:23:53;;;;;;;5.20;3.90;;;;;;;;;;5053011;28;20205;-86
2022/04/14 03:26:22;;;;;;;4.75;4.18;;;;;;;;;;5053474;28;20725;-86
2022/04/14 03:28:49;;;;;;;4.85;4.13;;;;;;;;;;5055365;28;20205;-85
2022/04/14 03:31:16;;;;;;;3.75;3.15;;;;;;;;;;5057999;28;20230;-86
2022/04/14 03:33:43;;;;;;;4.97;3.63;;;;;;;;;;5057895;28;20263;-85
2022/04/14 03:36:11;;;;;;;4.10;3.70;;;;;;;;;;5058100;28;20193;-85
2022/04/14 03:38:38;;;;;;;4.03;3.65;;;;;;;;;;5058692;28;20197;-85
2022/04/14 03:41:07;;;;;;;3.70;3.40;;;;;;;;;;5057654;28;20232;-85
2022/04/14 03:43:37;;;;;;;3.88;3.38;;;;;;;;;;5058360;28;20212;-85
2022/04/14 03:46:05;;;;;;;3.75;3.45;;;;;;;;;;5058892;28;20274;-85
2022/04/14 03:48:32;;;;;;;4.03;3.60;;;;;;;;;;5057884;28;20245;-86
2022/04/14 03:51:00;;;;;;;4.35;3.92;;;;;;;;;;5058288;28;20611;-85
2022/04/14 03:53:27;;;;;;;4.15;3.75;;;;;;;;;;5056826;28;20636;-85
2022/04/14 03:55:54;;;;;;;4.30;3.85;;;;;;;;;;5057805;28;20202;-85
2022/04/14 03:58:22;;;;;;;4.20;3.72;;;;;;;;;;5058017;28;20213;-85
2022/04/14 04:00:50;;;;;;;3.95;3.60;;;;;;;;;;5057946;28;20229;-85
2022/04/14 04:03:18;;;;;;;5.97;4.45;;;;;;;;;;5057232;28;20682;-85
2022/04/14 04:05:45;;;;;;;6.30;4.25;;;;;;;;;;5058550;28;20189;-85
2022/04/14 04:08:12;;;;;;;5.40;4.90;;;;;;;;;;5057759;28;20225;-85
2022/04/14 04:10:40;;;;;;;5.97;5.38;;;;;;;;;;5057906;28;20226;-86
2022/04/14 04:13:07;;;;;;;4.53;4.13;;;;;;;;;;5058148;28;20263;-85
2022/04/14 04:15:35;;;;;;;5.63;4.03;;;;;;;;;;5057852;28;20201;-85
2022/04/14 04:18:04;;;;;;;4.18;3.78;;;;;;;;;;5057772;28;20213;-85
2022/04/14 04:20:32;;;;;;;5.78;4.75;;;;;;;;;;5057899;28;20226;-85
2022/04/14 04:22:59;;;;;;;6.55;5.85;;;;;;;;;;5057527;28;20251;-85
2022/04/14 04:25:27;;;;;;;5.30;4.85;;;;;;;;;;5057548;28;20259;-85
2022/04/14 04:27:54;;;;;;;6.82;4.75;;;;;;;;;;5058009;28;20275;-85
2022/04/14 04:30:21;;;;;;;5.85;5.35;;;;;;;;;;5058205;28;20648;-85
2022/04/14 04:32:48;;;;;;;5.68;4.90;;;;;;;;;;5057821;28;20201;-85
2022/04/14 04:35:17;;;;;;;5.57;4.97;;;;;;;;;;5058540;28;20253;-85
2022/04/14 04:37:45;;;;;;;5.70;4.22;;;;;;;;;;5057812;28;20198;-84
2022/04/14 04:40:12;;;;;;;5.55;4.97;;;;;;;;;;5056734;28;20221;-85
2022/04/14 04:42:40;;;;;;;5.78;5.18;;;;;;;;;;5058055;28;20197;-85
2022/04/14 04:45:08;;;;;;;4.97;4.53;;;;;;;;;;5058037;28;20208;-86
2022/04/14 04:47:35;;;;;;;4.88;4.22;;;;;;;;;;5058027;28;20751;-85
2022/04/14 04:50:06;;;;;;;5.10;4.53;;;;;;;;;;5047913;28;20231;-85
2022/04/14 04:52:34;;;;;;;5.60;4.93;;;;;;;;;;5037184;28;20762;-85
2022/04/14 04:55:02;;;;;;;4.30;3.75;;;;;;;;;;5037955;28;20611;-85
2022/04/14 04:57:29;;;;;;;4.63;4.18;;;;;;;;;;5038296;28;20777;-85
2022/04/14 04:59:56;;;;;;;3.47;3.13;;;;;;;;;;5037870;28;20257;-86
2022/04/14 05:02:24;;;;;;;5.03;4.57;;;;;;;;;;5038469;28;20621;-85
2022/04/14 05:04:51;;;;;;;3.40;3.10;;;;;;;;;;5038521;28;20202;-86
2022/04/14 05:07:18;;;;;;;3.70;3.40;;;;;;;;;;5037778;28;20222;-85
2022/04/14 05:09:47;;;;;;;4.00;3.22;;;;;;;;;;5038270;28;20226;-85
2022/04/14 05:12:14;;;;;;;4.03;2.90;;;;;;;;;;5036634;28;20207;-78
2022/04/14 05:14:41;;;;;;;2.90;2.70;;;;;;;;;;5034748;28;20206;-78
2022/04/14 05:17:08;;;;;;;3.65;2.67;;;;;;;;;;5035076;28;20206;-79
2022/04/14 05:19:36;;;;;;;3.53;3.20;;;;;;;;;;5040728;28;20275;-78
2022/04/14 05:22:03;;;;;;;3.58;3.13;;;;;;;;;;5055868;28;20214;-78
2022/04/14 05:24:31;;;;;;;3.15;2.88;;;;;;;;;;5056831;28;20201;-77
2022/04/14 05:26:59;;;;;;;2.97;2.75;;;;;;;;;;5058337;28;20815;-78
2022/04/14 05:29:27;;;;;;;3.28;2.55;;;;;;;;;;5057113;28;20209;-79
2022/04/14 05:31:54;;;;;;;3.40;3.10;;;;;;;;;;5057052;28;20209;-78
2022/04/14 05:34:22;;;;;;;3.15;2.85;;;;;;;;;;5056090;28;20198;-79
2022/04/14 05:36:49;;;;;;;2.75;2.50;;;;;;;;;;5054909;28;20632;-79
2022/04/14 05:39:16;;;;;;;2.83;2.55;;;;;;;;;;5055019;28;20210;-79
2022/04/14 05:41:44;;;;;;;3.45;3.03;;;;;;;;;;5054824;28;20202;-79
2022/04/14 05:44:12;;;;;;;4.68;3.10;;;;;;;;;;5055269;28;20213;-80
2022/04/14 05:46:40;;;;;;;4.53;3.17;;;;;;;;;;5054498;28;20206;-77
2022/04/14 05:49:07;;;;;;;3.45;3.15;;;;;;;;;;5053729;28;20304;-78
2022/04/14 05:51:34;;;;;;;3.63;2.95;;;;;;;;;;5053259;28;20222;-81
2022/04/14 05:54:01;;;;;;;3.28;2.97;;;;;;;;;;5055017;28;20209;-78
2022/04/14 05:56:29;;;;;;;3.38;2.63;;;;;;;;;;5054635;28;20209;-78
2022/04/14 05:58:56;;;;;;;3.88;3.58;;;;;;;;;;5053836;28;20210;-77
2022/04/14 06:01:25;;;;;;;3.58;3.25;;;;;;;;;;5053597;28;20225;-79
2022/04/14 06:03:52;;;;;;;3.80;3.50;;;;;;;;;;5054103;28;20209;-78
2022/04/14 06:06:19;;;;;;;3.33;3.03;;;;;;;;;;5053860;28;20197;-79
2022/04/14 06:08:47;;;;;;;4.80;4.40;;;;;;;;;;5053612;28;20228;-78
2022/04/14 06:11:14;;;;;;;5.93;3.92;;;;;;;;;;5054300;28;20225;-77
2022/04/14 06:13:41;;;;;;;4.10;3.78;;;;;;;;;;5053483;28;20210;-79
2022/04/14 06:16:09;;;;;;;5.40;4.35;;;;;;;;;;5053974;28;20263;-78
2022/04/14 06:18:37;;;;;;;4.50;4.10;;;;;;;;;;5053349;28;20213;-79
2022/04/14 06:21:04;;;;;;;3.60;3.30;;;;;;;;;;5035426;28;20718;-79
2022/04/14 06:23:32;;;;;;;5.28;3.88;;;;;;;;;;5032953;28;20206;-79
2022/04/14 06:25:59;;;;;;;3.97;3.60;;;;;;;;;;5034248;28;20202;-79
2022/04/14 06:28:26;;;;;;;4.85;3.67;;;;;;;;;;5036242;28;20226;-78
2022/04/14 06:30:53;;;;;;;2.97;2.78;;;;;;;;;;5037886;28;20249;-78
2022/04/14 06:33:21;;;;;;;3.88;3.15;;;;;;;;;;5037557;28;20206;-77
2022/04/14 06:35:49;;;;;;;4.00;3.35;;;;;;;;;;5036639;28;20725;-79
2022/04/14 06:38:17;;;;;;;5.70;3.78;;;;;;;;;;5036680;28;20202;-78
2022/04/14 06:40:44;;;;;;;3.72;3.40;;;;;;;;;;5036987;28;20230;-79
2022/04/14 06:43:11;;;;;;;5.30;3.70;;;;;;;;;;5035596;28;20210;-79
2022/04/14 06:45:38;;;;;;;3.72;3.40;;;;;;;;;;5036988;28;20210;-80
2022/04/14 06:48:07;;;;;;;4.07;3.63;;;;;;;;;;5038308;28;20222;-79
2022/04/14 06:50:34;;;;;;;3.92;3.42;;;;;;;;;;5051032;28;20324;-80
2022/04/14 06:53:03;;;;;;;3.90;3.50;;;;;;;;;;5056798;28;20205;-79
2022/04/14 06:55:31;;;;;;;3.70;3.20;;;;;;;;;;5056056;28;20205;-79
2022/04/14 06:57:58;;;;;;;5.40;3.70;;;;;;;;;;5055482;28;20204;-80
2022/04/14 07:00:27;;;;;;;2.75;2.55;;;;;;;;;;5055730;28;20233;-80
2022/04/14 07:02:56;;;;;;;3.20;2.90;;;;;;;;;;5057188;28;20737;-78
2022/04/14 07:05:24;;;;;;;3.05;2.85;;;;;;;;;;5055722;28;20355;-78
2022/04/14 07:07:52;;;;;;;2.83;2.63;;;;;;;;;;5058593;28;20213;-78
2022/04/14 07:10:21;;;;;;;2.78;2.58;;;;;;;;;;5056484;28;20221;-80
2022/04/14 07:12:48;;;;;;;2.55;2.35;;;;;;;;;;5059461;28;20210;-79
2022/04/14 07:15:15;;;;;;;3.47;2.85;;;;;;;;;;5062546;28;20198;-80
2022/04/14 07:17:43;;;;;;;3.13;2.45;;;;;;;;;;5063890;28;20228;-80
2022/04/14 07:20:11;;;;;;;3.20;2.72;;;;;;;;;;5062015;28;20252;-78
2022/04/14 07:22:46;;;;;;;2.40;2.20;;;;;;;;;;5060716;28;20232;-80
2022/04/14 07:25:13;;;;;;;2.88;2.67;;;;;;;;;;5059079;28;20647;-78
2022/04/14 07:27:42;;;;;;;2.40;2.20;;;;;;;;;;5053199;28;20213;-79
2022/04/14 07:30:10;;;;;;;2.75;2.55;;;;;;;;;;5053303;28;20222;-79
2022/04/14 07:32:40;;;;;;;2.33;2.05;;;;;;;;;;5053291;28;20263;-80
2022/04/14 07:35:08;;;;;;;2.15;1.95;;;;;;;;;;5052237;28;20202;-80
2022/04/14 07:37:36;;;;;;;1.83;1.73;;;;;;;;;;5051767;28;20738;-79
2022/04/14 07:40:05;;;;;;;1.92;1.80;;;;;;;;;;5052271;28;20231;-80
2022/04/14 07:42:33;;;;;;;3.45;2.20;;;;;;;;;;5052710;28;20233;-79
2022/04/14 07:45:02;;;;;;;3.92;2.08;;;;;;;;;;5052149;28;20237;-80
2022/04/14 07:47:29;;;;;;;2.00;1.90;;;;;;;;;;5052654;28;20197;-81
2022/04/14 07:49:56;;;;;;;2.95;1.90;;;;;;;;;;5044572;28;20666;-80
2022/04/14 07:52:24;;;;;;;2.00;1.80;;;;;;;;;;5033189;28;20248;-80
2022/04/14 07:54:51;;;;;;;2.35;1.50;;;;;;;;;;5033781;28;20198;-80
2022/04/14 07:57:18;;;;;;;2.33;1.83;;;;;;;;;;5033759;28;20395;-81
2022/04/14 07:59:45;;;;;;;2.30;2.10;;;;;;;;;;5032752;28;20234;-79
2022/04/14 08:02:14;;;;;;;2.03;1.85;;;;;;;;;;5032959;28;20210;-80
2022/04/14 08:04:41;;;;;;;1.70;1.60;;;;;;;;;;5033903;28;20202;-79
2022/04/14 08:07:09;;;;;;;1.50;1.40;;;;;;;;;;5033108;28;20214;-79
2022/04/14 08:09:36;;;;;;;2.17;1.98;;;;;;;;;;5033199;28;20280;-80
2022/04/14 08:12:04;;;;;;;2.80;2.60;;;;;;;;;;5033351;28;20210;-79
2022/04/14 08:14:31;;;;;;;2.35;2.15;;;;;;;;;;5033021;28;20233;-80
2022/04/14 08:17:03;;;;;;;2.38;2.17;;;;;;;;;;5037339;28;20210;-81
2022/04/14 08:19:34;;;;;;;2.40;2.20;;;;;;;;;;5042306;28;20202;-80
2022/04/14 08:22:01;;;;;;;2.80;2.05;;;;;;;;;;5057532;28;20198;-80
2022/04/14 08:24:29;;;;;;;2.40;2.20;;;;;;;;;;5057005;28;20296;-81
2022/04/14 08:26:56;;;;;;;1.92;1.83;;;;;;;;;;5057288;28;20631;-80
2022/04/14 08:29:23;;;;;;;2.95;2.05;;;;;;;;;;5056662;28;20721;-79
2022/04/14 08:31:51;;;;;;;2.10;1.95;;;;;;;;;;5057031;28;20606;-80
2022/04/14 08:34:18;;;;;;;2.70;2.00;;;;;;;;;;5057005;28;20260;-80
2022/04/14 08:36:47;;;;;;;1.80;1.70;;;;;;;;;;5056304;28;20808;-80
2022/04/14 08:39:15;;;;;;;3.10;2.58;;;;;;;;;;5056248;28;20209;-80
2022/04/14 08:41:46;;;;;;;2.70;1.98;;;;;;;;;;5056108;28;20202;-80
2022/04/14 08:44:15;;;;;;;1.90;1.63;;;;;;;;;;5056487;28;20275;-80
2022/04/14 08:46:43;;;;;;;2.42;2.22;;;;;;;;;;5056237;28;20635;-80
2022/04/14 08:49:11;;;;;;;6.85;2.05;;;;;;;;;;5055510;28;20229;-81
2022/04/14 08:51:38;;;;;;;2.20;2.10;;;;;;;;;;5055915;28;20197;-80
2022/04/14 08:54:09;;;;;;;2.25;2.05;;;;;;;;;;5055942;28;20696;-81
2022/04/14 08:56:37;;;;;;;2.33;2.13;;;;;;;;;;5055813;28;20202;-81
2022/04/14 08:59:05;;;;;;;2.20;1.85;;;;;;;;;;5056095;28;20206;-80
2022/04/14 09:01:34;;;;;;;2.30;2.13;;;;;;;;;;5055939;28;20218;-81
2022/04/14 09:04:01;;;;;;;2.13;1.92;;;;;;;;;;5056544;28;20210;-81
2022/04/14 09:06:31;;;;;;;1.48;1.38;;;;;;;;;;5055996;28;20205;-81
2022/04/14 09:09:00;;;;;;;2.65;1.60;;;;;;;;;;5055878;28;20588;-81
2022/04/14 09:11:30;;;;;;;1.90;1.80;;;;;;;;;;5055915;28;20224;-81
2022/04/14 09:14:01;;;;;;;2.70;2.47;;;;;;;;;;5056126;28;20201;-81
2022/04/14 09:16:30;;;;;;;2.20;1.48;;;;;;;;;;5056290;28;20205;-81
2022/04/14 09:18:58;;;;;;;1.55;1.45;;;;;;;;;;5055894;28;20284;-81
2022/04/14 09:21:25;;;;;;;1.55;1.45;;;;;;;;;;5036119;28;20230;-81
2022/04/14 09:23:53;;;;;;;2.45;1.75;;;;;;;;;;5036568;28;20372;-80
2022/04/14 09:26:23;;;;;;;2.03;1.83;;;;;;;;;;5035331;28;20206;-80
2022/04/14 09:29:08;;;;;;;2.20;2.10;;;;;;;;;;5035809;28;20210;-81
2022/04/14 09:31:49;;;;;;;1.98;1.80;;;;;;;;;;5034452;28;20718;-80
2022/04/14 09:34:18;;;;;;;3.10;2.90;;;;;;;;;;5034252;28;20565;-80
2022/04/14 09:37:07;;;;;;;2.88;2.67;;;;;;;;;;5034848;28;20680;-81
2022/04/14 09:39:57;;;;;;;2.75;2.55;;;;;;;;;;5034638;28;20264;-80
2022/04/14 09:42:27;;;;;;;2.55;2.35;;;;;;;;;;5033993;28;20213;-79
2022/04/14 09:44:56;;;;;;;1.92;1.83;;;;;;;;;;5033654;28;20203;-80
2022/04/14 09:47:42;;;;;;;1.67;1.58;;;;;;;;;;5034490;28;20213;-80
2022/04/14 09:50:28;;;;;;;2.90;2.70;;;;;;;;;;5044312;28;20689;-80
2022/04/14 09:53:15;;;;;;;3.67;3.38;;;;;;;;;;5054202;28;20205;-80
2022/04/14 09:55:55;;;;;;;3.75;2.75;;;;;;;;;;5054844;28;20267;-81
2022/04/14 09:58:24;;;;;;;3.55;2.92;;;;;;;;;;5054226;28;20202;-80
2022/04/14 10:00:55;;;;;;;3.70;3.40;;;;;;;;;;5054504;28;20713;-80
2022/04/14 10:03:24;;;;;;;4.38;3.45;;;;;;;;;;5054211;28;20205;-80
2022/04/14 10:05:53;;;;;;;2.55;2.35;;;;;;;;;;5054141;28;20213;-81
2022/04/14 10:08:22;;;;;;;3.15;2.95;;;;;;;;;;5054036;28;20589;-81
2022/04/14 10:10:54;;;;;;;5.00;4.55;;;;;;;;;;5054402;28;20669;-81
2022/04/14 10:13:21;;;;;;;7.00;5.78;;;;;;;;;;5053433;28;20194;-81
2022/04/14 10:15:53;;;;;;;3.40;3.08;;;;;;;;;;5053615;28;20566;-81
2022/04/14 10:18:21;;;;;;;3.78;3.45;;;;;;;;;;5053078;28;20673;-83
2022/04/14 10:20:48;;;;;;;4.32;3.92;;;;;;;;;;5052059;28;20229;-81
2022/04/14 10:23:17;;;;;;;5.50;4.88;;;;;;;;;;5051843;28;20674;-80
2022/04/14 10:25:44;;;;;;;5.53;5.03;;;;;;;;;;5052713;28;20205;-81
2022/04/14 10:28:17;;;;;;;5.03;4.60;;;;;;;;;;5052667;28;20267;-81
2022/04/14 10:30:47;;;;;;;6.20;5.50;;;;;;;;;;5052726;28;20363;-80
2022/04/14 10:33:16;;;;;;;6.65;5.57;;;;;;;;;;5054914;28;20220;-81
2022/04/14 10:35:44;;;;;;;6.40;5.35;;;;;;;;;;5054246;28;20644;-81
2022/04/14 10:38:15;;;;;;;4.65;4.25;;;;;;;;;;5053417;28;20259;-80
2022/04/14 10:40:46;;;;;;;4.57;4.15;;;;;;;;;;5053339;28;20222;-80
2022/04/14 10:43:15;;;;;;;5.88;5.38;;;;;;;;;;5053953;28;20229;-80
2022/04/14 10:45:49;;;;;;;6.03;5.05;;;;;;;;;;5053842;28;20230;-81
2022/04/14 10:48:31;;;;;;;4.20;3.78;;;;;;;;;;5053860;28;20205;-80
2022/04/14 10:51:24;;;;;;;4.57;4.18;;;;;;;;;;5036929;28;20226;-82
2022/04/14 10:53:58;;;;;;;3.10;2.90;;;;;;;;;;5033701;28;20206;-81
2022/04/14 10:56:49;;;;;;;3.40;3.20;;;;;;;;;;5032692;28;20289;-82
2022/04/14 10:59:21;;;;;;;5.10;4.45;;;;;;;;;;5033565;28;20214;-80
2022/04/14 11:02:02;;;;;;;7.10;6.32;;;;;;;;;;5033856;28;20767;-79
2022/04/14 11:04:51;;;;;;;6.57;5.97;;;;;;;;;;5033406;28;20221;-80
2022/04/14 11:07:21;;;;;;;5.93;5.35;;;;;;;;;;5034275;28;20585;-80
2022/04/14 11:09:52;;;;;;;5.78;5.28;;;;;;;;;;5034404;28;20230;-80
2022/04/14 11:12:21;;;;;;;4.78;4.28;;;;;;;;;;5035886;28;20694;-81
2022/04/14 11:14:51;;;;;;;4.82;4.43;;;;;;;;;;5036844;28;20625;-81
2022/04/14 11:17:56;;;;;;;6.00;5.38;;;;;;;;;;5034874;28;20206;-81
2022/04/14 11:21:05;;;;;;;6.38;5.20;;;;;;;;;;5045934;28;20316;-80
2022/04/14 11:23:35;;;;;;;4.10;3.80;;;;;;;;;;5048362;28;20228;-80
2022/04/14 11:26:11;;;;;;;7.10;5.72;;;;;;;;;;5053522;28;20209;-79
2022/04/14 11:28:43;;;;;;;4.45;3.88;;;;;;;;;;5054023;28;20206;-80
2022/04/14 11:31:26;;;;;;;4.85;4.15;;;;;;;;;;5053308;28;20260;-80
2022/04/14 11:33:57;;;;;;;4.07;3.67;;;;;;;;;;5054436;28;20225;-82
2022/04/14 11:36:40;;;;;;;3.50;3.20;;;;;;;;;;5053447;28;20202;-81
2022/04/14 11:39:09;;;;;;;5.38;3.75;;;;;;;;;;5052973;28;20205;-80
2022/04/14 11:41:42;;;;;;;5.32;4.82;;;;;;;;;;5052418;28;20740;-80
2022/04/14 11:44:12;;;;;;;6.43;5.03;;;;;;;;;;5052629;28;20231;-80
2022/04/14 11:46:42;;;;;;;4.75;4.32;;;;;;;;;;5052842;28;20615;-80
2022/04/14 11:49:12;;;;;;;6.68;6.05;;;;;;;;;;5052568;28;20197;-80
2022/04/14 11:51:46;;;;;;;6.65;6.07;;;;;;;;;;5055972;28;20225;-81
2022/04/14 11:54:14;;;;;;;7.57;6.38;;;;;;;;;;5056653;28;20208;-80
2022/04/14 11:56:42;;;;;;;7.45;5.80;;;;;;;;;;5056045;28;20228;-79
2022/04/14 11:59:09;;;;;;;5.88;5.28;;;;;;;;;;5056701;28;20217;-81
2022/04/14 12:01:49;;;;;;;6.63;6.05;;;;;;;;;;5057278;28;20647;-81
2022/04/14 12:04:17;;;;;;;6.65;5.78;;;;;;;;;;5057299;28;20240;-80
2022/04/14 12:06:56;;;;;;;7.28;6.57;;;;;;;;;;5056743;28;20201;-81
2022/04/14 12:09:25;;;;;;;8.07;7.10;;;;;;;;;;5056973;28;20219;-81
2022/04/14 12:11:53;;;;;;;5.80;4.82;;;;;;;;;;5056500;28;20298;-82
2022/04/14 12:14:21;;;;;;;4.82;4.43;;;;;;;;;;5057297;28;20205;-80
2022/04/14 12:16:52;;;;;;;5.43;4.93;;;;;;;;;;5056386;28;20263;-81
2022/04/14 12:19:19;;;;;;;5.18;4.78;;;;;;;;;;5052417;28;20681;-81
2022/04/14 12:22:02;;;;;;;5.20;4.70;;;;;;;;;;5035878;28;20209;-82
2022/04/14 12:24:30;;;;;;;6.55;5.20;;;;;;;;;;5036706;28;20210;-80
2022/04/14 12:26:58;;;;;;;5.60;5.10;;;;;;;;;;5036710;28;20234;-81
2022/04/14 12:29:26;;;;;;;6.32;5.53;;;;;;;;;;5035929;28;20631;-81
2022/04/14 12:31:56;;;;;;;4.95;4.45;;;;;;;;;;5035900;28;20214;-80
2022/04/14 12:34:24;;;;;;;4.43;4.05;;;;;;;;;;5036290;28;20207;-81
2022/04/14 12:36:51;;;;;;;4.15;3.78;;;;;;;;;;5035702;28;20233;-81
2022/04/14 12:39:22;;;;;;;4.57;4.15;;;;;;;;;;5035861;28;20210;-81
2022/04/14 12:41:50;;;;;;;4.15;3.42;;;;;;;;;;5036488;28;20289;-81
2022/04/14 12:44:20;;;;;;;3.65;3.35;;;;;;;;;;5035993;28;20260;-81
2022/04/14 12:46:50;;;;;;;4.30;3.90;;;;;;;;;;5036023;28;20202;-81
2022/04/14 12:49:21;;;;;;;3.92;3.63;;;;;;;;;;5039623;28;20205;-81
2022/04/14 12:51:55;;;;;;;4.15;3.75;;;;;;;;;;5055277;28;20221;-81
2022/04/14 12:54:24;;;;;;;2.92;2.72;;;;;;;;;;5056533;28;20240;-81
2022/04/14 12:57:00;;;;;;;2.90;2.53;;;;;;;;;;5056660;28;20202;-80
2022/04/14 12:59:28;;;;;;;4.55;3.47;;;;;;;;;;5055527;28;20206;-80
2022/04/14 13:01:59;;;;;;;2.85;2.60;;;;;;;;;;5053586;28;20932;-81
2022/04/14 13:04:37;;;;;;;3.97;3.67;;;;;;;;;;5053489;28;20202;-81
2022/04/14 13:07:07;;;;;;;3.65;3.35;;;;;;;;;;5056214;28;20205;-81
2022/04/14 13:09:38;;;;;;;4.68;4.28;;;;;;;;;;5054890;28;20264;-81
2022/04/14 13:12:07;;;;;;;3.95;3.65;;;;;;;;;;5054101;28;20228;-80
2022/04/14 13:14:44;;;;;;;3.58;3.20;;;;;;;;;;5055043;28;20297;-81
2022/04/14 13:17:11;;;;;;;4.70;4.25;;;;;;;;;;5055164;28;20198;-81
2022/04/14 13:19:40;;;;;;;5.28;4.88;;;;;;;;;;5054631;28;20221;-81
2022/04/14 13:22:08;;;;;;;4.28;3.88;;;;;;;;;;5055309;28;20615;-82
2022/04/14 13:24:36;;;;;;;4.32;3.90;;;;;;;;;;5055929;28;20252;-81
2022/04/14 13:27:04;;;;;;;5.45;4.68;;;;;;;;;;5056377;28;20201;-82
2022/04/14 13:29:31;;;;;;;4.63;4.22;;;;;;;;;;5056218;28;20206;-81
2022/04/14 13:31:59;;;;;;;5.75;4.32;;;;;;;;;;5053524;28;20218;-82
2022/04/14 13:34:26;;;;;;;6.38;5.00;;;;;;;;;;5054250;28;20701;-80
2022/04/14 13:36:58;;;;;;;4.35;3.95;;;;;;;;;;5054119;28;20213;-82
2022/04/14 13:39:26;;;;;;;3.75;3.40;;;;;;;;;;5052398;28;20198;-81
2022/04/14 13:41:54;;;;;;;8.27;6.07;;;;;;;;;;5052455;28;20197;-81
2022/04/14 13:44:22;;;;;;;3.15;2.85;;;;;;;;;;5052642;28;20662;-82
2022/04/14 13:46:49;;;;;;;4.75;4.35;;;;;;;;;;5052647;28;20658;-82
2022/04/14 13:49:16;;;;;;;4.90;4.43;;;;;;;;;;5050177;28;20272;-81
2022/04/14 13:51:43;;;;;;;4.15;3.65;;;;;;;;;;5051451;28;20198;-82
2022/04/14 13:54:11;;;;;;;4.78;4.38;;;;;;;;;;5051892;28;20225;-82
2022/04/14 13:56:38;;;;;;;4.15;3.75;;;;;;;;;;5052640;28;20209;-82
2022/04/14 13:59:07;;;;;;;4.63;4.32;;;;;;;;;;5016927;28;1019600;-81
2022/04/14 14:01:34;;;;;;;3.15;2.80;;;;;;;;;;5052659;28;20218;-81
2022/04/14 14:04:01;;;;;;;2.80;2.60;;;;;;;;;;5052918;28;20597;-81
2022/04/14 14:06:29;;;;;;;4.88;4.25;;;;;;;;;;5053523;28;20201;-79
2022/04/14 14:08:56;;;;;;;5.03;4.60;;;;;;;;;;5052793;28;20201;-82
2022/04/14 14:11:23;;;;;;;4.25;3.85;;;;;;;;;;5052385;28;20218;-82
2022/04/14 14:13:51;;;;;;;4.35;3.95;;;;;;;;;;5051806;28;20735;-81
2022/04/14 14:16:19;;;;;;;6.15;4.68;;;;;;;;;;5052954;28;20221;-81
2022/04/14 14:18:47;;;;;;;3.65;3.38;;;;;;;;;;5052876;28;20685;-81
2022/04/14 14:21:14;;;;;;;3.55;3.03;;;;;;;;;;5053088;28;20636;-82
2022/04/14 14:23:42;;;;;;;3.50;3.10;;;;;;;;;;5053041;28;20201;-82
2022/04/14 14:26:09;;;;;;;3.70;3.42;;;;;;;;;;5053158;28;20209;-81
2022/04/14 14:28:36;;;;;;;4.35;3.80;;;;;;;;;;5051479;28;20201;-82
2022/04/14 14:31:03;;;;;;;4.35;3.97;;;;;;;;;;5052741;28;20281;-80
2022/04/14 14:33:32;;;;;;;4.95;4.10;;;;;;;;;;5052951;28;20214;-81
2022/04/14 14:36:02;;;;;;;5.35;4.95;;;;;;;;;;5053379;28;20565;-81
2022/04/14 14:38:29;;;;;;;3.15;2.85;;;;;;;;;;5053736;28;20198;-80
2022/04/14 14:40:57;;;;;;;3.20;3.00;;;;;;;;;;5053339;28;20305;-82
2022/04/14 14:43:24;;;;;;;2.17;1.98;;;;;;;;;;5052783;28;20208;-83
2022/04/14 14:45:52;;;;;;;2.67;2.47;;;;;;;;;;5052992;28;20201;-82
2022/04/14 14:48:19;;;;;;;2.90;2.70;;;;;;;;;;5052913;28;20202;-82
2022/04/14 14:50:48;;;;;;;3.72;3.45;;;;;;;;;;5072797;22;20560;-86
2022/04/14 14:53:15;;;;;;;3.95;3.65;;;;;;;;;;5079030;28;20645;-86
2022/04/14 14:55:42;;;;;;;3.45;3.15;;;;;;;;;;5099191;22;20319;-80